BAW783C ENGM-EGLL
Flight info
| Callsign | BAW783C |
|---|---|
| Flight time | 2h 5m |
| Altitude | 38000 |
| Route | VIPPA LINVI L39 GOLUM UPGAS TIPAN WECOW BINBO AKOKO N866 BUKUT P7 BARMI |
| Aircraft | A320/M-VGDW/C |
Departure
| Time | 2026-05-03 23:41 |
|---|---|
| Airport | Oslo-Gardermoen International Airport (ENGM) |
Arrival
| Time | 2026-05-04 01:46 |
|---|---|
| Airport | London Heathrow Airport (EGLL) |
| Time | Latitude | Longitude | Altitude | Speed | Heading |
|---|---|---|---|---|---|
| 2026-05-03 22:54 | 60.19719 | 11.10240 | 685 ft | 0 kts | 286° |
| 2026-05-03 23:26 | 60.19716 | 11.10261 | 678 ft | 4 kts | 286° |
| 2026-05-03 23:26 | 60.19709 | 11.10314 | 679 ft | 4 kts | 286° |
| 2026-05-03 23:27 | 60.19707 | 11.10323 | 678 ft | 0 kts | 286° |
| 2026-05-03 23:34 | 60.19708 | 11.10322 | 678 ft | 0 kts | 292° |
| 2026-05-03 23:34 | 60.19712 | 11.10322 | 680 ft | 1 kts | 335° |
| 2026-05-03 23:34 | 60.19714 | 11.10340 | 681 ft | 1 kts | 88° |
| 2026-05-03 23:35 | 60.19704 | 11.10395 | 684 ft | 6 kts | 109° |
| 2026-05-03 23:35 | 60.19722 | 11.10480 | 683 ft | 10 kts | 18° |
| 2026-05-03 23:35 | 60.19821 | 11.10538 | 682 ft | 19 kts | 17° |
| 2026-05-03 23:35 | 60.19935 | 11.10599 | 684 ft | 14 kts | 5° |
| 2026-05-03 23:36 | 60.19973 | 11.10533 | 685 ft | 12 kts | 287° |
| 2026-05-03 23:36 | 60.20006 | 11.10297 | 683 ft | 15 kts | 285° |
| 2026-05-03 23:36 | 60.20035 | 11.10083 | 686 ft | 17 kts | 285° |
| 2026-05-03 23:36 | 60.20070 | 11.09825 | 681 ft | 21 kts | 285° |
| 2026-05-03 23:37 | 60.20116 | 11.09519 | 679 ft | 25 kts | 287° |
| 2026-05-03 23:37 | 60.20149 | 11.09291 | 681 ft | 27 kts | 285° |
| 2026-05-03 23:37 | 60.20193 | 11.08998 | 680 ft | 16 kts | 287° |
| 2026-05-03 23:37 | 60.20223 | 11.08819 | 680 ft | 10 kts | 295° |
| 2026-05-03 23:38 | 60.20311 | 11.08812 | 679 ft | 11 kts | 19° |
| 2026-05-03 23:38 | 60.20365 | 11.08845 | 681 ft | 13 kts | 16° |
| 2026-05-03 23:38 | 60.20461 | 11.08901 | 682 ft | 16 kts | 16° |
| 2026-05-03 23:38 | 60.20572 | 11.08962 | 682 ft | 18 kts | 15° |
| 2026-05-03 23:39 | 60.20659 | 11.08956 | 681 ft | 10 kts | 289° |
| 2026-05-03 23:39 | 60.20686 | 11.08796 | 679 ft | 14 kts | 287° |
| 2026-05-03 23:39 | 60.20700 | 11.08645 | 679 ft | 7 kts | 255° |
| 2026-05-03 23:39 | 60.20645 | 11.08608 | 679 ft | 12 kts | 194° |
| 2026-05-03 23:40 | 60.20501 | 11.08528 | 678 ft | 40 kts | 196° |
| 2026-05-03 23:40 | 60.20003 | 11.08243 | 674 ft | 105 kts | 196° |
| 2026-05-03 23:40 | 60.19144 | 11.07756 | 677 ft | 152 kts | 192° |
| 2026-05-03 23:40 | 60.18108 | 11.07145 | 1229 ft | 155 kts | 196° |
| 2026-05-03 23:41 | 60.17091 | 11.06436 | 1958 ft | 155 kts | 207° |
| 2026-05-03 23:41 | 60.16241 | 11.04984 | 2447 ft | 171 kts | 233° |
| 2026-05-03 23:41 | 60.15683 | 11.02712 | 2829 ft | 190 kts | 245° |
| 2026-05-03 23:41 | 60.15153 | 11.00204 | 3340 ft | 200 kts | 246° |
| 2026-05-03 23:42 | 60.14584 | 10.97499 | 3827 ft | 221 kts | 246° |
| 2026-05-03 23:42 | 60.13965 | 10.94522 | 4397 ft | 240 kts | 246° |
| 2026-05-03 23:42 | 60.13285 | 10.91407 | 5178 ft | 250 kts | 245° |
| 2026-05-03 23:42 | 60.12535 | 10.88231 | 6134 ft | 253 kts | 245° |
| 2026-05-03 23:43 | 60.11776 | 10.84998 | 7032 ft | 258 kts | 245° |
| 2026-05-03 23:43 | 60.11017 | 10.81702 | 7959 ft | 260 kts | 245° |
| 2026-05-03 23:43 | 60.10252 | 10.78410 | 8957 ft | 260 kts | 245° |
| 2026-05-03 23:43 | 60.09488 | 10.75131 | 9916 ft | 260 kts | 246° |
| 2026-05-03 23:44 | 60.08722 | 10.71817 | 10487 ft | 274 kts | 245° |
| 2026-05-03 23:44 | 60.07882 | 10.68207 | 10752 ft | 297 kts | 245° |
| 2026-05-03 23:44 | 60.06980 | 10.64346 | 11216 ft | 310 kts | 245° |
| 2026-05-03 23:44 | 60.05929 | 10.60536 | 11924 ft | 316 kts | 235° |
| 2026-05-03 23:45 | 60.04411 | 10.57321 | 12709 ft | 321 kts | 221° |
| 2026-05-03 23:45 | 60.02488 | 10.54966 | 13445 ft | 329 kts | 207° |
| 2026-05-03 23:45 | 60.00254 | 10.53685 | 14112 ft | 339 kts | 194° |
| 2026-05-03 23:45 | 59.97950 | 10.52918 | 14760 ft | 341 kts | 194° |
| 2026-05-03 23:46 | 59.95598 | 10.52144 | 15437 ft | 344 kts | 194° |
| 2026-05-03 23:46 | 59.93228 | 10.51367 | 16110 ft | 346 kts | 194° |
| 2026-05-03 23:46 | 59.90841 | 10.50580 | 16781 ft | 349 kts | 195° |
| 2026-05-03 23:46 | 59.88436 | 10.49780 | 17443 ft | 351 kts | 195° |
| 2026-05-03 23:47 | 59.86017 | 10.48971 | 18079 ft | 354 kts | 195° |
| 2026-05-03 23:47 | 59.83580 | 10.48156 | 18666 ft | 356 kts | 195° |
| 2026-05-03 23:47 | 59.81120 | 10.47334 | 19253 ft | 359 kts | 195° |
| 2026-05-03 23:47 | 59.78650 | 10.46507 | 19832 ft | 361 kts | 195° |
| 2026-05-03 23:48 | 59.76160 | 10.45676 | 20424 ft | 363 kts | 195° |
| 2026-05-03 23:48 | 59.73693 | 10.44859 | 20932 ft | 366 kts | 195° |
| 2026-05-03 23:48 | 59.71170 | 10.44027 | 21483 ft | 369 kts | 195° |
| 2026-05-03 23:48 | 59.68632 | 10.43194 | 22013 ft | 371 kts | 195° |
| 2026-05-03 23:49 | 59.66075 | 10.42351 | 22547 ft | 373 kts | 195° |
| 2026-05-03 23:49 | 59.63504 | 10.41501 | 23068 ft | 376 kts | 195° |
| 2026-05-03 23:49 | 59.60912 | 10.40643 | 23554 ft | 378 kts | 195° |
| 2026-05-03 23:49 | 59.58310 | 10.39790 | 24020 ft | 379 kts | 195° |
| 2026-05-03 23:50 | 59.55774 | 10.38950 | 24494 ft | 380 kts | 195° |
| 2026-05-03 23:50 | 59.53167 | 10.38071 | 24988 ft | 380 kts | 195° |
| 2026-05-03 23:50 | 59.50598 | 10.37196 | 25444 ft | 380 kts | 195° |
| 2026-05-03 23:50 | 59.47982 | 10.36306 | 25905 ft | 381 kts | 195° |
| 2026-05-03 23:51 | 59.45360 | 10.35421 | 26393 ft | 380 kts | 195° |
| 2026-05-03 23:51 | 59.42753 | 10.34544 | 26907 ft | 380 kts | 195° |
| 2026-05-03 23:51 | 59.40145 | 10.33671 | 27406 ft | 380 kts | 195° |
| 2026-05-03 23:51 | 59.37568 | 10.32811 | 27895 ft | 380 kts | 195° |
| 2026-05-03 23:52 | 59.34956 | 10.31938 | 28370 ft | 381 kts | 195° |
| 2026-05-03 23:52 | 59.32339 | 10.31064 | 28826 ft | 381 kts | 195° |
| 2026-05-03 23:52 | 59.29722 | 10.30188 | 29275 ft | 382 kts | 195° |
| 2026-05-03 23:52 | 59.27096 | 10.29306 | 29721 ft | 383 kts | 195° |
| 2026-05-03 23:53 | 59.24468 | 10.28427 | 30113 ft | 384 kts | 195° |
| 2026-05-03 23:53 | 59.21826 | 10.27550 | 30489 ft | 385 kts | 195° |
| 2026-05-03 23:53 | 59.19180 | 10.26674 | 30872 ft | 385 kts | 195° |
| 2026-05-03 23:53 | 59.16559 | 10.25885 | 31273 ft | 388 kts | 191° |
| 2026-05-03 23:54 | 59.13851 | 10.25500 | 31667 ft | 390 kts | 190° |
| 2026-05-03 23:54 | 59.11131 | 10.25135 | 32063 ft | 391 kts | 190° |
| 2026-05-03 23:54 | 59.08409 | 10.24768 | 32457 ft | 393 kts | 190° |
| 2026-05-03 23:54 | 59.05678 | 10.24394 | 32834 ft | 394 kts | 190° |
| 2026-05-03 23:55 | 59.02939 | 10.24018 | 33196 ft | 395 kts | 190° |
| 2026-05-03 23:55 | 59.00228 | 10.23646 | 33594 ft | 396 kts | 190° |
| 2026-05-03 23:55 | 58.97500 | 10.23077 | 33956 ft | 392 kts | 197° |
| 2026-05-03 23:55 | 58.94897 | 10.21667 | 34260 ft | 387 kts | 206° |
| 2026-05-03 23:56 | 58.92482 | 10.19407 | 34558 ft | 384 kts | 214° |
| 2026-05-03 23:56 | 58.90319 | 10.16373 | 34747 ft | 385 kts | 223° |
| 2026-05-03 23:56 | 58.88284 | 10.12977 | 34969 ft | 388 kts | 222° |
| 2026-05-03 23:56 | 58.86234 | 10.09577 | 35239 ft | 389 kts | 222° |
| 2026-05-03 23:57 | 58.84165 | 10.06161 | 35519 ft | 391 kts | 222° |
| 2026-05-03 23:57 | 58.82091 | 10.02744 | 35797 ft | 392 kts | 222° |
| 2026-05-03 23:57 | 58.80037 | 9.99367 | 36064 ft | 394 kts | 222° |
| 2026-05-03 23:57 | 58.77949 | 9.95943 | 36333 ft | 395 kts | 222° |
| 2026-05-03 23:58 | 58.75852 | 9.92507 | 36597 ft | 396 kts | 222° |
| 2026-05-03 23:58 | 58.73747 | 9.89057 | 36854 ft | 397 kts | 222° |
| 2026-05-03 23:58 | 58.71637 | 9.85600 | 37110 ft | 399 kts | 223° |
| 2026-05-03 23:58 | 58.69519 | 9.82131 | 37365 ft | 400 kts | 222° |
| 2026-05-03 23:59 | 58.67395 | 9.78675 | 37623 ft | 401 kts | 222° |
| 2026-05-03 23:59 | 58.65261 | 9.75210 | 37758 ft | 402 kts | 222° |
| 2026-05-03 23:59 | 58.60995 | 9.68283 | 37801 ft | 406 kts | 222° |
| 2026-05-04 00:00 | 58.56675 | 9.61297 | 37807 ft | 406 kts | 222° |
| 2026-05-04 00:00 | 58.52348 | 9.54331 | 37807 ft | 406 kts | 222° |
| 2026-05-04 00:01 | 58.48036 | 9.47427 | 37803 ft | 406 kts | 222° |
| 2026-05-04 00:01 | 58.43698 | 9.40494 | 37806 ft | 406 kts | 222° |
| 2026-05-04 00:02 | 58.39359 | 9.33567 | 37822 ft | 407 kts | 222° |
| 2026-05-04 00:02 | 58.35010 | 9.26647 | 37808 ft | 408 kts | 222° |
| 2026-05-04 00:03 | 58.30635 | 9.19722 | 37804 ft | 409 kts | 222° |
| 2026-05-04 00:03 | 58.26282 | 9.12850 | 37808 ft | 409 kts | 221° |
| 2026-05-04 00:04 | 58.21893 | 9.05944 | 37811 ft | 410 kts | 221° |
| 2026-05-04 00:04 | 58.17494 | 8.99035 | 37814 ft | 410 kts | 221° |
| 2026-05-04 00:05 | 58.13100 | 8.92160 | 37791 ft | 410 kts | 221° |
| 2026-05-04 00:05 | 58.08694 | 8.85302 | 37803 ft | 410 kts | 221° |
| 2026-05-04 00:06 | 58.04320 | 8.78496 | 37819 ft | 410 kts | 221° |
| 2026-05-04 00:06 | 57.99910 | 8.71670 | 37821 ft | 410 kts | 221° |
| 2026-05-04 00:07 | 57.95496 | 8.64871 | 37821 ft | 410 kts | 221° |
| 2026-05-04 00:07 | 57.91082 | 8.58081 | 37798 ft | 410 kts | 221° |
| 2026-05-04 00:08 | 57.86667 | 8.51298 | 37815 ft | 410 kts | 221° |
| 2026-05-04 00:08 | 57.82263 | 8.44560 | 37823 ft | 411 kts | 221° |
| 2026-05-04 00:09 | 57.77815 | 8.37792 | 37821 ft | 412 kts | 221° |
| 2026-05-04 00:09 | 57.73361 | 8.31034 | 37828 ft | 412 kts | 221° |
| 2026-05-04 00:10 | 57.68930 | 8.24322 | 37826 ft | 412 kts | 221° |
| 2026-05-04 00:10 | 57.64469 | 8.17582 | 37814 ft | 412 kts | 220° |
| 2026-05-04 00:11 | 57.59994 | 8.10864 | 37828 ft | 412 kts | 220° |
| 2026-05-04 00:11 | 57.55516 | 8.04160 | 37840 ft | 412 kts | 220° |
| 2026-05-04 00:12 | 57.51067 | 7.97515 | 37846 ft | 412 kts | 220° |
| 2026-05-04 00:12 | 57.46585 | 7.90844 | 37857 ft | 413 kts | 220° |
| 2026-05-04 00:13 | 57.42099 | 7.84182 | 37864 ft | 413 kts | 220° |
| 2026-05-04 00:13 | 57.37604 | 7.77532 | 37875 ft | 412 kts | 220° |
| 2026-05-04 00:14 | 57.33135 | 7.70939 | 37863 ft | 413 kts | 220° |
| 2026-05-04 00:14 | 57.28630 | 7.64306 | 37854 ft | 413 kts | 220° |
| 2026-05-04 00:15 | 57.24114 | 7.57701 | 37889 ft | 414 kts | 220° |
| 2026-05-04 00:15 | 57.19590 | 7.51114 | 37876 ft | 414 kts | 220° |
| 2026-05-04 00:16 | 57.15098 | 7.44573 | 37870 ft | 414 kts | 220° |
| 2026-05-04 00:16 | 57.10574 | 7.38001 | 37885 ft | 414 kts | 220° |
| 2026-05-04 00:17 | 57.06050 | 7.31456 | 37893 ft | 413 kts | 220° |
| 2026-05-04 00:17 | 57.01554 | 7.24970 | 37901 ft | 413 kts | 220° |
| 2026-05-04 00:18 | 56.96972 | 7.18565 | 37907 ft | 414 kts | 218° |
| 2026-05-04 00:18 | 56.92286 | 7.12444 | 37912 ft | 414 kts | 217° |
| 2026-05-04 00:19 | 56.87572 | 7.06389 | 37892 ft | 414 kts | 217° |
| 2026-05-04 00:19 | 56.82909 | 7.00333 | 37916 ft | 414 kts | 217° |
| 2026-05-04 00:20 | 56.78210 | 6.94204 | 37911 ft | 415 kts | 217° |
| 2026-05-04 00:20 | 56.73506 | 6.88091 | 37913 ft | 415 kts | 217° |
| 2026-05-04 00:21 | 56.68825 | 6.82028 | 37914 ft | 415 kts | 217° |
| 2026-05-04 00:21 | 56.64101 | 6.75935 | 37899 ft | 416 kts | 217° |
| 2026-05-04 00:22 | 56.59378 | 6.69868 | 37917 ft | 415 kts | 217° |
| 2026-05-04 00:22 | 56.54660 | 6.63810 | 37928 ft | 415 kts | 217° |
| 2026-05-04 00:23 | 56.49964 | 6.57803 | 37934 ft | 415 kts | 217° |
| 2026-05-04 00:23 | 56.45240 | 6.51792 | 37938 ft | 415 kts | 217° |
| 2026-05-04 00:24 | 56.40499 | 6.45787 | 37922 ft | 415 kts | 217° |
| 2026-05-04 00:24 | 56.35793 | 6.39830 | 37930 ft | 415 kts | 217° |
| 2026-05-04 00:25 | 56.31061 | 6.33850 | 37934 ft | 415 kts | 217° |
| 2026-05-04 00:25 | 56.26317 | 6.27879 | 37943 ft | 416 kts | 217° |
| 2026-05-04 00:26 | 56.21566 | 6.21927 | 37932 ft | 416 kts | 216° |
| 2026-05-04 00:26 | 56.16803 | 6.15982 | 37938 ft | 417 kts | 216° |
| 2026-05-04 00:27 | 56.12068 | 6.10077 | 37932 ft | 417 kts | 217° |
| 2026-05-04 00:27 | 56.07297 | 6.04128 | 37939 ft | 417 kts | 216° |
| 2026-05-04 00:28 | 56.02527 | 5.98207 | 37946 ft | 417 kts | 216° |
| 2026-05-04 00:28 | 55.97781 | 5.92351 | 37948 ft | 417 kts | 216° |
| 2026-05-04 00:29 | 55.93000 | 5.86476 | 37957 ft | 417 kts | 216° |
| 2026-05-04 00:29 | 55.88214 | 5.80604 | 37958 ft | 417 kts | 216° |
| 2026-05-04 00:30 | 55.83436 | 5.74745 | 37958 ft | 417 kts | 216° |
| 2026-05-04 00:30 | 55.78648 | 5.68892 | 37958 ft | 417 kts | 216° |
| 2026-05-04 00:31 | 55.73877 | 5.63102 | 37958 ft | 417 kts | 216° |
| 2026-05-04 00:31 | 55.69087 | 5.57280 | 37970 ft | 418 kts | 216° |
| 2026-05-04 00:32 | 55.64285 | 5.51467 | 37943 ft | 418 kts | 216° |
| 2026-05-04 00:32 | 55.59467 | 5.45662 | 37949 ft | 419 kts | 216° |
| 2026-05-04 00:33 | 55.52258 | 5.37008 | 37957 ft | 419 kts | 216° |
| 2026-05-04 00:34 | 55.47428 | 5.31236 | 37963 ft | 419 kts | 216° |
| 2026-05-04 00:34 | 55.42643 | 5.25355 | 37964 ft | 419 kts | 218° |
| 2026-05-04 00:35 | 55.38095 | 5.19038 | 37951 ft | 418 kts | 220° |
| 2026-05-04 00:35 | 55.33581 | 5.12575 | 37957 ft | 418 kts | 220° |
| 2026-05-04 00:36 | 55.29020 | 5.06198 | 37967 ft | 418 kts | 219° |
| 2026-05-04 00:36 | 55.24417 | 5.00031 | 37967 ft | 419 kts | 214° |
| 2026-05-04 00:37 | 55.19283 | 4.95128 | 37969 ft | 420 kts | 210° |
| 2026-05-04 00:37 | 55.14130 | 4.90265 | 37952 ft | 420 kts | 210° |
| 2026-05-04 00:38 | 55.08983 | 4.85396 | 37962 ft | 420 kts | 210° |
| 2026-05-04 00:38 | 55.03865 | 4.80590 | 37960 ft | 420 kts | 210° |
| 2026-05-04 00:39 | 54.98709 | 4.75774 | 37957 ft | 420 kts | 210° |
| 2026-05-04 00:39 | 54.94414 | 4.71780 | 37958 ft | 420 kts | 210° |
| 2026-05-04 00:40 | 54.89254 | 4.66975 | 37945 ft | 420 kts | 210° |
| 2026-05-04 00:40 | 54.84094 | 4.62190 | 37952 ft | 420 kts | 210° |
| 2026-05-04 00:41 | 54.78926 | 4.57421 | 37951 ft | 420 kts | 210° |
| 2026-05-04 00:41 | 54.73794 | 4.52687 | 37954 ft | 420 kts | 210° |
| 2026-05-04 00:42 | 54.68626 | 4.47927 | 37959 ft | 420 kts | 210° |
| 2026-05-04 00:42 | 54.63452 | 4.43180 | 37944 ft | 421 kts | 209° |
| 2026-05-04 00:43 | 54.58274 | 4.38455 | 37946 ft | 421 kts | 209° |
| 2026-05-04 00:43 | 54.53124 | 4.33774 | 37951 ft | 421 kts | 209° |
| 2026-05-04 00:44 | 54.47940 | 4.29066 | 37950 ft | 421 kts | 209° |
| 2026-05-04 00:44 | 54.42754 | 4.24366 | 37960 ft | 422 kts | 209° |
| 2026-05-04 00:45 | 54.37550 | 4.19661 | 37943 ft | 422 kts | 209° |
| 2026-05-04 00:45 | 54.32341 | 4.14965 | 37942 ft | 423 kts | 209° |
| 2026-05-04 00:46 | 54.27149 | 4.10315 | 37944 ft | 423 kts | 209° |
| 2026-05-04 00:46 | 54.21923 | 4.05649 | 37948 ft | 423 kts | 209° |
| 2026-05-04 00:47 | 54.16694 | 4.00984 | 37934 ft | 423 kts | 209° |
| 2026-05-04 00:47 | 54.11500 | 3.96352 | 37944 ft | 424 kts | 209° |
| 2026-05-04 00:48 | 54.06268 | 3.91705 | 37952 ft | 424 kts | 208° |
| 2026-05-04 00:48 | 54.01029 | 3.87080 | 37954 ft | 424 kts | 208° |
| 2026-05-04 00:49 | 53.95793 | 3.82462 | 37956 ft | 424 kts | 209° |
| 2026-05-04 00:49 | 53.90560 | 3.77847 | 37957 ft | 424 kts | 208° |
| 2026-05-04 00:50 | 53.85363 | 3.73269 | 37967 ft | 423 kts | 208° |
| 2026-05-04 00:50 | 53.80135 | 3.68688 | 37966 ft | 423 kts | 208° |
| 2026-05-04 00:51 | 53.74896 | 3.64129 | 37954 ft | 423 kts | 208° |
| 2026-05-04 00:51 | 53.69649 | 3.59568 | 37943 ft | 424 kts | 208° |
| 2026-05-04 00:52 | 53.64405 | 3.55017 | 37942 ft | 424 kts | 208° |
| 2026-05-04 00:52 | 53.59190 | 3.50510 | 37955 ft | 424 kts | 208° |
| 2026-05-04 00:53 | 53.53934 | 3.45976 | 37947 ft | 424 kts | 208° |
| 2026-05-04 00:53 | 53.48673 | 3.41446 | 37944 ft | 424 kts | 208° |
| 2026-05-04 00:54 | 53.43450 | 3.36967 | 37951 ft | 424 kts | 208° |
| 2026-05-04 00:54 | 53.38184 | 3.32469 | 37952 ft | 424 kts | 208° |
| 2026-05-04 00:55 | 53.32928 | 3.27974 | 37937 ft | 424 kts | 208° |
| 2026-05-04 00:55 | 53.27672 | 3.23497 | 37929 ft | 424 kts | 208° |
| 2026-05-04 00:56 | 53.22444 | 3.19064 | 37932 ft | 424 kts | 208° |
| 2026-05-04 00:56 | 53.17181 | 3.14610 | 37917 ft | 424 kts | 208° |
| 2026-05-04 00:57 | 53.11919 | 3.10175 | 37933 ft | 423 kts | 208° |
| 2026-05-04 00:57 | 53.06657 | 3.05752 | 37942 ft | 423 kts | 208° |
| 2026-05-04 00:58 | 53.01414 | 3.01350 | 37611 ft | 424 kts | 208° |
| 2026-05-04 00:58 | 52.98786 | 2.99139 | 37343 ft | 423 kts | 208° |
| 2026-05-04 00:58 | 52.96157 | 2.96930 | 37063 ft | 423 kts | 208° |
| 2026-05-04 00:58 | 52.93531 | 2.94739 | 36804 ft | 423 kts | 208° |
| 2026-05-04 00:59 | 52.90899 | 2.92552 | 36554 ft | 422 kts | 208° |
| 2026-05-04 00:59 | 52.88276 | 2.90373 | 36295 ft | 422 kts | 208° |
| 2026-05-04 00:59 | 52.85651 | 2.88193 | 36053 ft | 421 kts | 208° |
| 2026-05-04 00:59 | 52.83034 | 2.86017 | 35796 ft | 421 kts | 208° |
| 2026-05-04 01:00 | 52.80417 | 2.83847 | 35548 ft | 420 kts | 208° |
| 2026-05-04 01:00 | 52.77806 | 2.81684 | 35306 ft | 419 kts | 208° |
| 2026-05-04 01:00 | 52.75199 | 2.79523 | 35063 ft | 419 kts | 208° |
| 2026-05-04 01:00 | 52.72596 | 2.77368 | 34808 ft | 418 kts | 208° |
| 2026-05-04 01:01 | 52.70003 | 2.75223 | 34575 ft | 417 kts | 208° |
| 2026-05-04 01:01 | 52.67444 | 2.73114 | 34360 ft | 416 kts | 208° |
| 2026-05-04 01:01 | 52.64853 | 2.70984 | 34117 ft | 416 kts | 208° |
| 2026-05-04 01:01 | 52.62262 | 2.68858 | 33577 ft | 417 kts | 208° |
| 2026-05-04 01:02 | 52.59643 | 2.66710 | 32544 ft | 423 kts | 208° |
| 2026-05-04 01:02 | 52.57015 | 2.64559 | 31990 ft | 418 kts | 208° |
| 2026-05-04 01:02 | 52.54422 | 2.62441 | 31425 ft | 414 kts | 208° |
| 2026-05-04 01:02 | 52.51852 | 2.60348 | 30846 ft | 411 kts | 208° |
| 2026-05-04 01:03 | 52.49304 | 2.58270 | 30254 ft | 407 kts | 208° |
| 2026-05-04 01:03 | 52.46779 | 2.56209 | 29696 ft | 402 kts | 208° |
| 2026-05-04 01:03 | 52.44296 | 2.54187 | 29422 ft | 396 kts | 208° |
| 2026-05-04 01:03 | 52.41836 | 2.52185 | 29138 ft | 394 kts | 208° |
| 2026-05-04 01:04 | 52.39388 | 2.50192 | 28858 ft | 392 kts | 208° |
| 2026-05-04 01:04 | 52.36951 | 2.48208 | 28576 ft | 391 kts | 208° |
| 2026-05-04 01:04 | 52.34515 | 2.46229 | 28316 ft | 391 kts | 208° |
| 2026-05-04 01:04 | 52.32069 | 2.44248 | 28040 ft | 391 kts | 207° |
| 2026-05-04 01:05 | 52.29670 | 2.42309 | 27772 ft | 390 kts | 207° |
| 2026-05-04 01:05 | 52.27240 | 2.40348 | 27495 ft | 388 kts | 207° |
| 2026-05-04 01:05 | 52.24823 | 2.38397 | 27217 ft | 386 kts | 207° |
| 2026-05-04 01:05 | 52.22421 | 2.36467 | 26952 ft | 383 kts | 207° |
| 2026-05-04 01:06 | 52.20033 | 2.34553 | 26693 ft | 382 kts | 207° |
| 2026-05-04 01:06 | 52.17653 | 2.32647 | 26426 ft | 381 kts | 207° |
| 2026-05-04 01:06 | 52.15278 | 2.30746 | 26195 ft | 379 kts | 207° |
| 2026-05-04 01:06 | 52.12915 | 2.28837 | 25928 ft | 378 kts | 209° |
| 2026-05-04 01:07 | 52.10714 | 2.26537 | 25672 ft | 375 kts | 219° |
| 2026-05-04 01:07 | 52.08798 | 2.23674 | 25423 ft | 374 kts | 228° |
| 2026-05-04 01:07 | 52.07089 | 2.20492 | 25176 ft | 373 kts | 229° |
| 2026-05-04 01:07 | 52.05382 | 2.17319 | 24931 ft | 372 kts | 229° |
| 2026-05-04 01:08 | 52.03696 | 2.14199 | 24933 ft | 372 kts | 229° |
| 2026-05-04 01:08 | 52.01987 | 2.11045 | 24938 ft | 371 kts | 229° |
| 2026-05-04 01:08 | 52.00282 | 2.07907 | 24947 ft | 370 kts | 229° |
| 2026-05-04 01:08 | 51.98583 | 2.04773 | 24944 ft | 369 kts | 229° |
| 2026-05-04 01:09 | 51.96887 | 2.01640 | 24939 ft | 369 kts | 229° |
| 2026-05-04 01:09 | 51.95188 | 1.98509 | 24942 ft | 369 kts | 229° |
| 2026-05-04 01:09 | 51.93512 | 1.95425 | 24941 ft | 369 kts | 229° |
| 2026-05-04 01:09 | 51.91805 | 1.92290 | 24949 ft | 370 kts | 228° |
| 2026-05-04 01:10 | 51.90097 | 1.89159 | 24949 ft | 371 kts | 228° |
| 2026-05-04 01:10 | 51.88389 | 1.86029 | 24945 ft | 371 kts | 228° |
| 2026-05-04 01:10 | 51.86679 | 1.82894 | 24944 ft | 371 kts | 228° |
| 2026-05-04 01:10 | 51.84971 | 1.79765 | 24946 ft | 371 kts | 228° |
| 2026-05-04 01:11 | 51.83257 | 1.76635 | 24943 ft | 371 kts | 228° |
| 2026-05-04 01:11 | 51.81567 | 1.73556 | 24942 ft | 371 kts | 228° |
| 2026-05-04 01:11 | 51.79848 | 1.70438 | 24945 ft | 371 kts | 228° |
| 2026-05-04 01:11 | 51.78146 | 1.67351 | 24773 ft | 365 kts | 228° |
| 2026-05-04 01:12 | 51.76538 | 1.64172 | 24912 ft | 367 kts | 235° |
| 2026-05-04 01:12 | 51.75303 | 1.60559 | 24942 ft | 369 kts | 245° |
| 2026-05-04 01:12 | 51.74493 | 1.56599 | 24413 ft | 376 kts | 256° |
| 2026-05-04 01:12 | 51.74161 | 1.52395 | 23788 ft | 378 kts | 262° |
| 2026-05-04 01:13 | 51.73920 | 1.48183 | 23170 ft | 376 kts | 262° |
| 2026-05-04 01:13 | 51.73666 | 1.43991 | 22605 ft | 373 kts | 262° |
| 2026-05-04 01:13 | 51.73407 | 1.39896 | 22044 ft | 371 kts | 262° |
| 2026-05-04 01:13 | 51.73138 | 1.35776 | 21486 ft | 368 kts | 262° |
| 2026-05-04 01:14 | 51.72867 | 1.31680 | 20935 ft | 366 kts | 262° |
| 2026-05-04 01:14 | 51.72595 | 1.27609 | 20389 ft | 363 kts | 262° |
| 2026-05-04 01:14 | 51.72322 | 1.23558 | 19842 ft | 361 kts | 262° |
| 2026-05-04 01:14 | 51.72050 | 1.19545 | 19301 ft | 359 kts | 262° |
| 2026-05-04 01:15 | 51.71781 | 1.15557 | 18767 ft | 357 kts | 262° |
| 2026-05-04 01:15 | 51.71512 | 1.11578 | 18220 ft | 355 kts | 262° |
| 2026-05-04 01:15 | 51.71247 | 1.07680 | 17654 ft | 353 kts | 262° |
| 2026-05-04 01:15 | 51.70978 | 1.03768 | 17126 ft | 349 kts | 262° |
| 2026-05-04 01:16 | 51.70712 | 0.99885 | 16555 ft | 347 kts | 262° |
| 2026-05-04 01:16 | 51.70450 | 0.96026 | 16041 ft | 344 kts | 262° |
| 2026-05-04 01:16 | 51.70191 | 0.92209 | 15505 ft | 341 kts | 262° |
| 2026-05-04 01:16 | 51.69931 | 0.88417 | 14981 ft | 339 kts | 262° |
| 2026-05-04 01:17 | 51.69670 | 0.84656 | 14473 ft | 337 kts | 262° |
| 2026-05-04 01:17 | 51.69408 | 0.80919 | 13951 ft | 335 kts | 262° |
| 2026-05-04 01:17 | 51.69147 | 0.77249 | 13405 ft | 333 kts | 261° |
| 2026-05-04 01:17 | 51.68882 | 0.73551 | 12884 ft | 330 kts | 262° |
| 2026-05-04 01:18 | 51.68621 | 0.69890 | 12378 ft | 327 kts | 262° |
| 2026-05-04 01:18 | 51.68363 | 0.66265 | 11859 ft | 325 kts | 262° |
| 2026-05-04 01:18 | 51.68106 | 0.62654 | 11381 ft | 323 kts | 262° |
| 2026-05-04 01:18 | 51.67850 | 0.59077 | 11026 ft | 317 kts | 262° |
| 2026-05-04 01:19 | 51.67599 | 0.55611 | 10898 ft | 305 kts | 262° |
| 2026-05-04 01:19 | 51.67356 | 0.52279 | 10771 ft | 294 kts | 262° |
| 2026-05-04 01:19 | 51.67125 | 0.49095 | 10569 ft | 287 kts | 262° |
| 2026-05-04 01:19 | 51.66893 | 0.45922 | 10267 ft | 284 kts | 262° |
| 2026-05-04 01:20 | 51.66658 | 0.42755 | 9844 ft | 286 kts | 262° |
| 2026-05-04 01:20 | 51.66424 | 0.39585 | 9499 ft | 284 kts | 262° |
| 2026-05-04 01:20 | 51.66192 | 0.36420 | 9129 ft | 283 kts | 262° |
| 2026-05-04 01:20 | 51.65959 | 0.33294 | 8799 ft | 280 kts | 262° |
| 2026-05-04 01:21 | 51.65725 | 0.30177 | 8418 ft | 279 kts | 262° |
| 2026-05-04 01:21 | 51.65493 | 0.27082 | 8129 ft | 276 kts | 262° |
| 2026-05-04 01:21 | 51.65271 | 0.24107 | 8003 ft | 266 kts | 262° |
| 2026-05-04 01:21 | 51.65053 | 0.21197 | 7874 ft | 258 kts | 262° |
| 2026-05-04 01:22 | 51.64839 | 0.18381 | 7747 ft | 249 kts | 261° |
| 2026-05-04 01:22 | 51.64631 | 0.15646 | 7620 ft | 242 kts | 261° |
| 2026-05-04 01:22 | 51.64171 | 0.13112 | 7493 ft | 233 kts | 238° |
| 2026-05-04 01:22 | 51.63083 | 0.11242 | 7371 ft | 230 kts | 212° |
| 2026-05-04 01:23 | 51.61580 | 0.10394 | 7244 ft | 232 kts | 185° |
| 2026-05-04 01:23 | 51.60007 | 0.10756 | 7125 ft | 235 kts | 159° |
| 2026-05-04 01:23 | 51.58681 | 0.12288 | 7023 ft | 239 kts | 131° |
| 2026-05-04 01:23 | 51.58033 | 0.14193 | 6939 ft | 243 kts | 107° |
| 2026-05-04 01:24 | 51.57929 | 0.16911 | 6943 ft | 247 kts | 86° |
| 2026-05-04 01:24 | 51.58113 | 0.19675 | 6945 ft | 248 kts | 85° |
| 2026-05-04 01:24 | 51.58310 | 0.22329 | 6948 ft | 249 kts | 84° |
| 2026-05-04 01:24 | 51.58520 | 0.25089 | 6945 ft | 249 kts | 85° |
| 2026-05-04 01:25 | 51.58758 | 0.27844 | 6948 ft | 250 kts | 77° |
| 2026-05-04 01:25 | 51.59560 | 0.30289 | 6954 ft | 251 kts | 46° |
| 2026-05-04 01:25 | 51.61015 | 0.31781 | 6947 ft | 249 kts | 15° |
| 2026-05-04 01:25 | 51.62695 | 0.31932 | 6949 ft | 246 kts | 345° |
| 2026-05-04 01:26 | 51.64204 | 0.30766 | 6952 ft | 240 kts | 315° |
| 2026-05-04 01:26 | 51.65161 | 0.28633 | 6953 ft | 235 kts | 288° |
| 2026-05-04 01:26 | 51.65391 | 0.26070 | 6953 ft | 231 kts | 264° |
| 2026-05-04 01:26 | 51.65238 | 0.23488 | 6947 ft | 232 kts | 261° |
| 2026-05-04 01:27 | 51.65046 | 0.20913 | 6949 ft | 232 kts | 261° |
| 2026-05-04 01:27 | 51.64849 | 0.18334 | 6945 ft | 232 kts | 261° |
| 2026-05-04 01:27 | 51.64653 | 0.15758 | 6950 ft | 232 kts | 261° |
| 2026-05-04 01:27 | 51.64216 | 0.13288 | 6952 ft | 229 kts | 238° |
| 2026-05-04 01:28 | 51.63111 | 0.11482 | 6952 ft | 229 kts | 210° |
| 2026-05-04 01:28 | 51.61613 | 0.10795 | 6949 ft | 231 kts | 181° |
| 2026-05-04 01:28 | 51.60057 | 0.11414 | 6951 ft | 235 kts | 152° |
| 2026-05-04 01:28 | 51.58887 | 0.13262 | 6951 ft | 241 kts | 121° |
| 2026-05-04 01:29 | 51.58482 | 0.15396 | 6943 ft | 246 kts | 94° |
| 2026-05-04 01:29 | 51.58760 | 0.18113 | 6951 ft | 249 kts | 76° |
| 2026-05-04 01:29 | 51.59080 | 0.20732 | 6946 ft | 248 kts | 84° |
| 2026-05-04 01:29 | 51.59253 | 0.23497 | 6948 ft | 248 kts | 87° |
| 2026-05-04 01:30 | 51.59383 | 0.26228 | 6947 ft | 248 kts | 86° |
| 2026-05-04 01:30 | 51.59872 | 0.28877 | 6954 ft | 250 kts | 56° |
| 2026-05-04 01:30 | 51.61181 | 0.30661 | 6949 ft | 249 kts | 20° |
| 2026-05-04 01:30 | 51.62867 | 0.30948 | 6949 ft | 245 kts | 345° |
| 2026-05-04 01:31 | 51.64357 | 0.29754 | 6956 ft | 239 kts | 313° |
| 2026-05-04 01:31 | 51.65225 | 0.27538 | 6951 ft | 234 kts | 283° |
| 2026-05-04 01:31 | 51.65314 | 0.24962 | 6948 ft | 231 kts | 262° |
| 2026-05-04 01:31 | 51.65142 | 0.22422 | 6947 ft | 231 kts | 261° |
| 2026-05-04 01:32 | 51.64951 | 0.19849 | 6947 ft | 231 kts | 261° |
| 2026-05-04 01:32 | 51.64759 | 0.17277 | 6950 ft | 231 kts | 261° |
| 2026-05-04 01:32 | 51.64549 | 0.14710 | 6948 ft | 231 kts | 255° |
| 2026-05-04 01:32 | 51.63840 | 0.12444 | 6947 ft | 228 kts | 226° |
| 2026-05-04 01:33 | 51.62528 | 0.11053 | 6956 ft | 229 kts | 198° |
| 2026-05-04 01:33 | 51.60944 | 0.10899 | 6946 ft | 232 kts | 169° |
| 2026-05-04 01:33 | 51.59503 | 0.12069 | 6952 ft | 238 kts | 139° |
| 2026-05-04 01:33 | 51.58733 | 0.13817 | 6944 ft | 242 kts | 113° |
| 2026-05-04 01:34 | 51.58530 | 0.16603 | 6947 ft | 247 kts | 84° |
| 2026-05-04 01:34 | 51.58771 | 0.19345 | 6948 ft | 248 kts | 84° |
| 2026-05-04 01:34 | 51.58984 | 0.21959 | 6945 ft | 248 kts | 79° |
| 2026-05-04 01:34 | 51.59691 | 0.24493 | 6945 ft | 253 kts | 52° |
| 2026-05-04 01:35 | 51.61034 | 0.26287 | 6951 ft | 253 kts | 24° |
| 2026-05-04 01:35 | 51.62728 | 0.26903 | 6947 ft | 250 kts | 356° |
| 2026-05-04 01:35 | 51.64395 | 0.26239 | 6951 ft | 246 kts | 329° |
| 2026-05-04 01:35 | 51.65683 | 0.24532 | 6881 ft | 235 kts | 304° |
| 2026-05-04 01:36 | 51.66364 | 0.22240 | 6762 ft | 222 kts | 279° |
| 2026-05-04 01:36 | 51.66397 | 0.19844 | 6639 ft | 209 kts | 256° |
| 2026-05-04 01:36 | 51.65871 | 0.17705 | 6514 ft | 204 kts | 235° |
| 2026-05-04 01:36 | 51.64977 | 0.15935 | 6392 ft | 204 kts | 229° |
| 2026-05-04 01:37 | 51.64073 | 0.14217 | 6264 ft | 204 kts | 229° |
| 2026-05-04 01:37 | 51.63159 | 0.12470 | 6135 ft | 203 kts | 229° |
| 2026-05-04 01:37 | 51.62252 | 0.10728 | 6003 ft | 203 kts | 229° |
| 2026-05-04 01:37 | 51.61342 | 0.08988 | 5874 ft | 203 kts | 230° |
| 2026-05-04 01:38 | 51.60432 | 0.07251 | 5690 ft | 203 kts | 229° |
| 2026-05-04 01:38 | 51.59523 | 0.05521 | 5434 ft | 202 kts | 229° |
| 2026-05-04 01:38 | 51.58726 | 0.04005 | 5201 ft | 202 kts | 230° |
| 2026-05-04 01:38 | 51.57819 | 0.02281 | 4927 ft | 201 kts | 230° |
| 2026-05-04 01:39 | 51.57220 | 0.01142 | 4740 ft | 201 kts | 230° |
| 2026-05-04 01:39 | 51.56317 | -0.00578 | 4481 ft | 201 kts | 230° |
| 2026-05-04 01:39 | 51.55120 | -0.02851 | 4110 ft | 201 kts | 230° |
| 2026-05-04 01:39 | 51.54219 | -0.04562 | 3843 ft | 200 kts | 230° |
| 2026-05-04 01:40 | 51.53610 | -0.05716 | 3641 ft | 200 kts | 230° |
| 2026-05-04 01:40 | 51.52711 | -0.07416 | 3402 ft | 198 kts | 230° |
| 2026-05-04 01:40 | 51.51856 | -0.09033 | 3348 ft | 188 kts | 230° |
| 2026-05-04 01:40 | 51.51012 | -0.10628 | 3289 ft | 187 kts | 230° |
| 2026-05-04 01:41 | 51.50173 | -0.12213 | 3219 ft | 186 kts | 230° |
| 2026-05-04 01:41 | 51.49336 | -0.13795 | 3138 ft | 186 kts | 230° |
| 2026-05-04 01:41 | 51.48501 | -0.15374 | 3053 ft | 185 kts | 231° |
| 2026-05-04 01:41 | 51.47913 | -0.17197 | 3009 ft | 185 kts | 256° |
| 2026-05-04 01:42 | 51.47813 | -0.19258 | 3014 ft | 186 kts | 269° |
| 2026-05-04 01:42 | 51.47810 | -0.21327 | 2813 ft | 182 kts | 269° |
| 2026-05-04 01:42 | 51.47805 | -0.23299 | 2561 ft | 176 kts | 269° |
| 2026-05-04 01:42 | 51.47801 | -0.25235 | 2324 ft | 171 kts | 269° |
| 2026-05-04 01:43 | 51.47798 | -0.27110 | 2095 ft | 166 kts | 269° |
| 2026-05-04 01:43 | 51.47796 | -0.28941 | 1875 ft | 162 kts | 270° |
| 2026-05-04 01:43 | 51.47792 | -0.30724 | 1691 ft | 155 kts | 270° |
| 2026-05-04 01:43 | 51.47788 | -0.32385 | 1470 ft | 144 kts | 270° |
| 2026-05-04 01:44 | 51.47786 | -0.33960 | 1221 ft | 138 kts | 270° |
| 2026-05-04 01:44 | 51.47788 | -0.35483 | 959 ft | 135 kts | 269° |
| 2026-05-04 01:44 | 51.47787 | -0.36985 | 765 ft | 134 kts | 269° |
| 2026-05-04 01:44 | 51.47783 | -0.38458 | 635 ft | 133 kts | 269° |
| 2026-05-04 01:45 | 51.47770 | -0.39926 | 510 ft | 134 kts | 269° |
| 2026-05-04 01:45 | 51.47764 | -0.41452 | 367 ft | 138 kts | 270° |
| 2026-05-04 01:45 | 51.47759 | -0.44546 | 96 ft | 130 kts | 270° |
| 2026-05-04 01:46 | 51.47762 | -0.45783 | 84 ft | 87 kts | 269° |
| 2026-05-04 01:46 | 51.47759 | -0.46547 | 89 ft | 56 kts | 270° |
| 2026-05-04 01:46 | 51.47759 | -0.47080 | 89 ft | 41 kts | 269° |
| 2026-05-04 01:46 | 51.47755 | -0.47482 | 88 ft | 31 kts | 269° |
| 2026-05-04 01:47 | 51.47754 | -0.47818 | 87 ft | 30 kts | 269° |
| 2026-05-04 01:47 | 51.47754 | -0.48079 | 88 ft | 17 kts | 269° |
| 2026-05-04 01:47 | 51.47718 | -0.48166 | 88 ft | 8 kts | 170° |
| 2026-05-04 01:47 | 51.47647 | -0.48149 | 89 ft | 13 kts | 175° |
| 2026-05-04 01:48 | 51.47577 | -0.48217 | 87 ft | 14 kts | 261° |
| 2026-05-04 01:48 | 51.47576 | -0.48393 | 86 ft | 15 kts | 270° |
| 2026-05-04 01:48 | 51.47526 | -0.48476 | 87 ft | 13 kts | 179° |
| 2026-05-04 01:48 | 51.47422 | -0.48475 | 86 ft | 17 kts | 179° |
| 2026-05-04 01:49 | 51.47312 | -0.48474 | 86 ft | 14 kts | 180° |
| 2026-05-04 01:49 | 51.47234 | -0.48490 | 86 ft | 9 kts | 228° |
| 2026-05-04 01:49 | 51.47233 | -0.48551 | 88 ft | 4 kts | 269° |
| 2026-05-04 01:49 | 51.47233 | -0.48585 | 89 ft | 1 kts | 269° |